sensor_id;sensor_type;location;lat;lon;timestamp;temperature;humidity
56044;DHT22;41912;51.022;3.664;2023-05-10T00:01:51;15.10;99.90
56044;DHT22;41912;51.022;3.664;2023-05-10T00:04:17;15.10;99.90
56044;DHT22;41912;51.022;3.664;2023-05-10T00:06:43;15.10;99.90
56044;DHT22;41912;51.022;3.664;2023-05-10T00:09:08;15.10;99.90
56044;DHT22;41912;51.022;3.664;2023-05-10T00:11:34;15.10;99.90
56044;DHT22;41912;51.022;3.664;2023-05-10T00:13:59;15.10;99.90
56044;DHT22;41912;51.022;3.664;2023-05-10T00:16:25;15.10;99.90
56044;DHT22;41912;51.022;3.664;2023-05-10T00:18:50;15.00;99.90
56044;DHT22;41912;51.022;3.664;2023-05-10T00:21:16;15.10;99.90
56044;DHT22;41912;51.022;3.664;2023-05-10T00:23:42;15.10;99.90
56044;DHT22;41912;51.022;3.664;2023-05-10T00:26:07;15.10;99.90
56044;DHT22;41912;51.022;3.664;2023-05-10T00:28:33;15.20;99.90
56044;DHT22;41912;51.022;3.664;2023-05-10T00:30:58;15.20;99.90
56044;DHT22;41912;51.022;3.664;2023-05-10T00:33:24;15.20;99.90
56044;DHT22;41912;51.022;3.664;2023-05-10T00:35:50;15.10;99.90
56044;DHT22;41912;51.022;3.664;2023-05-10T00:38:15;15.20;99.90
56044;DHT22;41912;51.022;3.664;2023-05-10T00:40:41;15.10;99.90
56044;DHT22;41912;51.022;3.664;2023-05-10T00:43:06;15.20;99.90
56044;DHT22;41912;51.022;3.664;2023-05-10T00:45:33;15.20;99.90
56044;DHT22;41912;51.022;3.664;2023-05-10T00:48:02;15.10;99.90
56044;DHT22;41912;51.022;3.664;2023-05-10T00:50:29;15.10;99.90
56044;DHT22;41912;51.022;3.664;2023-05-10T00:52:56;15.10;99.90
56044;DHT22;41912;51.022;3.664;2023-05-10T00:55:23;15.10;99.90
56044;DHT22;41912;51.022;3.664;2023-05-10T00:57:49;15.10;99.90
56044;DHT22;41912;51.022;3.664;2023-05-10T01:00:15;15.10;99.90
56044;DHT22;41912;51.022;3.664;2023-05-10T01:02:47;15.10;99.90
56044;DHT22;41912;51.022;3.664;2023-05-10T01:05:13;15.00;99.90
56044;DHT22;41912;51.022;3.664;2023-05-10T01:07:39;15.00;99.90
56044;DHT22;41912;51.022;3.664;2023-05-10T01:10:06;15.00;99.90
56044;DHT22;41912;51.022;3.664;2023-05-10T01:12:37;15.00;99.90
56044;DHT22;41912;51.022;3.664;2023-05-10T01:15:05;15.00;99.90
56044;DHT22;41912;51.022;3.664;2023-05-10T01:17:31;15.00;99.90
56044;DHT22;41912;51.022;3.664;2023-05-10T01:19:57;15.00;99.90
56044;DHT22;41912;51.022;3.664;2023-05-10T01:22:44;15.00;99.90
56044;DHT22;41912;51.022;3.664;2023-05-10T01:34:06;15.00;99.90
56044;DHT22;41912;51.022;3.664;2023-05-10T01:36:40;14.90;99.90
56044;DHT22;41912;51.022;3.664;2023-05-10T01:39:22;14.90;99.90
56044;DHT22;41912;51.022;3.664;2023-05-10T01:41:54;14.80;99.90
56044;DHT22;41912;51.022;3.664;2023-05-10T01:44:39;14.80;99.90
56044;DHT22;41912;51.022;3.664;2023-05-10T01:47:11;14.80;99.90
56044;DHT22;41912;51.022;3.664;2023-05-10T01:49:42;14.70;99.90
56044;DHT22;41912;51.022;3.664;2023-05-10T01:52:12;14.70;99.90
56044;DHT22;41912;51.022;3.664;2023-05-10T01:54:44;14.70;99.90
56044;DHT22;41912;51.022;3.664;2023-05-10T01:57:13;14.70;99.90
56044;DHT22;41912;51.022;3.664;2023-05-10T01:59:43;14.60;99.90
56044;DHT22;41912;51.022;3.664;2023-05-10T02:02:10;14.60;99.90
56044;DHT22;41912;51.022;3.664;2023-05-10T02:04:38;14.60;99.90
56044;DHT22;41912;51.022;3.664;2023-05-10T02:07:06;14.50;99.90
56044;DHT22;41912;51.022;3.664;2023-05-10T02:09:33;14.50;99.90
56044;DHT22;41912;51.022;3.664;2023-05-10T02:12:01;14.50;99.90
56044;DHT22;41912;51.022;3.664;2023-05-10T02:14:30;14.60;99.90
56044;DHT22;41912;51.022;3.664;2023-05-10T02:16:58;14.60;99.90
56044;DHT22;41912;51.022;3.664;2023-05-10T02:19:25;14.70;99.90
56044;DHT22;41912;51.022;3.664;2023-05-10T02:21:54;14.70;99.90
56044;DHT22;41912;51.022;3.664;2023-05-10T02:24:21;14.70;99.90
56044;DHT22;41912;51.022;3.664;2023-05-10T02:26:49;14.70;99.90
56044;DHT22;41912;51.022;3.664;2023-05-10T02:29:16;14.80;99.90
56044;DHT22;41912;51.022;3.664;2023-05-10T02:31:42;14.70;99.90
56044;DHT22;41912;51.022;3.664;2023-05-10T02:34:10;14.70;99.90
56044;DHT22;41912;51.022;3.664;2023-05-10T02:36:38;14.80;99.90
56044;DHT22;41912;51.022;3.664;2023-05-10T02:39:04;14.70;99.90
56044;DHT22;41912;51.022;3.664;2023-05-10T02:41:35;14.70;99.90
56044;DHT22;41912;51.022;3.664;2023-05-10T02:44:02;14.70;99.90
56044;DHT22;41912;51.022;3.664;2023-05-10T02:46:30;14.60;99.90
56044;DHT22;41912;51.022;3.664;2023-05-10T02:48:56;14.70;99.90
56044;DHT22;41912;51.022;3.664;2023-05-10T02:51:25;14.70;99.90
56044;DHT22;41912;51.022;3.664;2023-05-10T02:53:53;14.70;99.90
56044;DHT22;41912;51.022;3.664;2023-05-10T02:56:25;14.70;99.90
56044;DHT22;41912;51.022;3.664;2023-05-10T02:58:57;14.70;99.90
56044;DHT22;41912;51.022;3.664;2023-05-10T03:01:23;14.70;99.90
56044;DHT22;41912;51.022;3.664;2023-05-10T03:03:48;14.70;99.90
56044;DHT22;41912;51.022;3.664;2023-05-10T03:06:14;14.60;99.90
56044;DHT22;41912;51.022;3.664;2023-05-10T03:08:42;14.70;99.90
56044;DHT22;41912;51.022;3.664;2023-05-10T03:11:37;14.70;99.90
56044;DHT22;41912;51.022;3.664;2023-05-10T03:14:16;14.70;99.90
56044;DHT22;41912;51.022;3.664;2023-05-10T03:16:49;14.70;99.90
56044;DHT22;41912;51.022;3.664;2023-05-10T03:19:32;14.70;99.90
56044;DHT22;41912;51.022;3.664;2023-05-10T03:22:06;14.60;99.90
56044;DHT22;41912;51.022;3.664;2023-05-10T03:24:34;14.60;99.90
56044;DHT22;41912;51.022;3.664;2023-05-10T03:27:01;14.60;99.90
56044;DHT22;41912;51.022;3.664;2023-05-10T03:29:30;14.60;99.90
56044;DHT22;41912;51.022;3.664;2023-05-10T03:31:58;14.60;99.90
56044;DHT22;41912;51.022;3.664;2023-05-10T03:34:25;14.60;99.90
56044;DHT22;41912;51.022;3.664;2023-05-10T03:36:51;14.70;99.90
56044;DHT22;41912;51.022;3.664;2023-05-10T03:39:17;14.60;99.90
56044;DHT22;41912;51.022;3.664;2023-05-10T03:41:43;14.70;99.90
56044;DHT22;41912;51.022;3.664;2023-05-10T03:44:08;14.70;99.90
56044;DHT22;41912;51.022;3.664;2023-05-10T03:46:34;14.70;99.90
56044;DHT22;41912;51.022;3.664;2023-05-10T03:48:59;14.70;99.90
56044;DHT22;41912;51.022;3.664;2023-05-10T03:51:25;14.70;99.90
56044;DHT22;41912;51.022;3.664;2023-05-10T03:53:56;14.80;99.90
56044;DHT22;41912;51.022;3.664;2023-05-10T03:56:22;14.80;99.90
56044;DHT22;41912;51.022;3.664;2023-05-10T03:58:47;14.80;99.90
56044;DHT22;41912;51.022;3.664;2023-05-10T04:01:13;14.80;99.90
56044;DHT22;41912;51.022;3.664;2023-05-10T04:03:39;14.80;99.90
56044;DHT22;41912;51.022;3.664;2023-05-10T04:06:05;14.70;99.90
56044;DHT22;41912;51.022;3.664;2023-05-10T04:08:31;14.70;99.90
56044;DHT22;41912;51.022;3.664;2023-05-10T04:11:11;14.70;99.90
56044;DHT22;41912;51.022;3.664;2023-05-10T04:13:37;14.70;99.90
56044;DHT22;41912;51.022;3.664;2023-05-10T04:16:04;14.60;99.90
56044;DHT22;41912;51.022;3.664;2023-05-10T04:18:30;14.70;99.90
56044;DHT22;41912;51.022;3.664;2023-05-10T04:20:57;14.70;99.90
56044;DHT22;41912;51.022;3.664;2023-05-10T04:23:22;14.70;99.90
56044;DHT22;41912;51.022;3.664;2023-05-10T04:25:48;14.80;99.90
56044;DHT22;41912;51.022;3.664;2023-05-10T04:28:14;14.80;99.90
56044;DHT22;41912;51.022;3.664;2023-05-10T04:30:39;14.70;99.90
56044;DHT22;41912;51.022;3.664;2023-05-10T04:33:05;14.80;99.90
56044;DHT22;41912;51.022;3.664;2023-05-10T04:35:31;14.70;99.90
56044;DHT22;41912;51.022;3.664;2023-05-10T04:37:57;14.70;99.90
56044;DHT22;41912;51.022;3.664;2023-05-10T04:40:22;14.80;99.90
56044;DHT22;41912;51.022;3.664;2023-05-10T04:42:48;14.80;99.90
56044;DHT22;41912;51.022;3.664;2023-05-10T04:45:13;14.80;99.90
56044;DHT22;41912;51.022;3.664;2023-05-10T04:47:42;14.80;99.90
56044;DHT22;41912;51.022;3.664;2023-05-10T04:50:08;14.80;99.90
56044;DHT22;41912;51.022;3.664;2023-05-10T04:52:33;14.80;99.90
56044;DHT22;41912;51.022;3.664;2023-05-10T04:54:59;14.80;99.90
56044;DHT22;41912;51.022;3.664;2023-05-10T04:57:25;14.80;99.90
56044;DHT22;41912;51.022;3.664;2023-05-10T04:59:51;14.80;99.90
56044;DHT22;41912;51.022;3.664;2023-05-10T05:02:17;14.90;99.90
56044;DHT22;41912;51.022;3.664;2023-05-10T05:04:43;14.90;99.90
56044;DHT22;41912;51.022;3.664;2023-05-10T05:07:08;14.90;99.90
56044;DHT22;41912;51.022;3.664;2023-05-10T05:09:34;14.90;99.90
56044;DHT22;41912;51.022;3.664;2023-05-10T05:11:59;14.90;99.90
56044;DHT22;41912;51.022;3.664;2023-05-10T05:14:25;14.90;99.90
56044;DHT22;41912;51.022;3.664;2023-05-10T05:16:52;14.90;99.90
56044;DHT22;41912;51.022;3.664;2023-05-10T05:19:17;14.90;99.90
56044;DHT22;41912;51.022;3.664;2023-05-10T05:21:43;14.90;99.90
56044;DHT22;41912;51.022;3.664;2023-05-10T05:24:09;14.90;99.90
56044;DHT22;41912;51.022;3.664;2023-05-10T05:26:35;14.90;99.90
56044;DHT22;41912;51.022;3.664;2023-05-10T05:29:02;14.90;99.90
56044;DHT22;41912;51.022;3.664;2023-05-10T05:31:28;14.90;99.90
56044;DHT22;41912;51.022;3.664;2023-05-10T05:33:54;14.90;99.90
56044;DHT22;41912;51.022;3.664;2023-05-10T05:36:19;14.90;99.90
56044;DHT22;41912;51.022;3.664;2023-05-10T05:38:45;15.00;99.90
56044;DHT22;41912;51.022;3.664;2023-05-10T05:41:11;14.90;99.90
56044;DHT22;41912;51.022;3.664;2023-05-10T05:43:36;14.90;99.90
56044;DHT22;41912;51.022;3.664;2023-05-10T05:46:02;15.00;99.90
56044;DHT22;41912;51.022;3.664;2023-05-10T05:48:29;15.00;99.90
56044;DHT22;41912;51.022;3.664;2023-05-10T05:50:56;15.00;99.90
56044;DHT22;41912;51.022;3.664;2023-05-10T05:53:22;15.00;99.90
56044;DHT22;41912;51.022;3.664;2023-05-10T05:55:52;15.00;99.90
56044;DHT22;41912;51.022;3.664;2023-05-10T05:58:19;15.00;99.90
56044;DHT22;41912;51.022;3.664;2023-05-10T06:00:45;15.10;99.90
56044;DHT22;41912;51.022;3.664;2023-05-10T06:03:10;15.10;99.90
56044;DHT22;41912;51.022;3.664;2023-05-10T06:05:36;15.10;99.90
56044;DHT22;41912;51.022;3.664;2023-05-10T06:08:01;15.10;99.90
56044;DHT22;41912;51.022;3.664;2023-05-10T06:10:27;15.10;99.90
56044;DHT22;41912;51.022;3.664;2023-05-10T06:12:53;15.10;99.90
56044;DHT22;41912;51.022;3.664;2023-05-10T06:15:18;15.10;99.90
56044;DHT22;41912;51.022;3.664;2023-05-10T06:17:44;15.10;99.90
56044;DHT22;41912;51.022;3.664;2023-05-10T06:20:10;15.10;99.90
56044;DHT22;41912;51.022;3.664;2023-05-10T06:22:36;15.10;99.90
56044;DHT22;41912;51.022;3.664;2023-05-10T06:25:01;15.10;99.90
56044;DHT22;41912;51.022;3.664;2023-05-10T06:27:27;15.10;99.90
56044;DHT22;41912;51.022;3.664;2023-05-10T06:29:54;15.10;99.90
56044;DHT22;41912;51.022;3.664;2023-05-10T06:32:19;15.10;99.90
56044;DHT22;41912;51.022;3.664;2023-05-10T06:34:45;15.10;99.90
56044;DHT22;41912;51.022;3.664;2023-05-10T06:37:11;15.10;99.90
56044;DHT22;41912;51.022;3.664;2023-05-10T06:39:37;15.10;99.90
56044;DHT22;41912;51.022;3.664;2023-05-10T06:42:05;15.10;99.90
56044;DHT22;41912;51.022;3.664;2023-05-10T06:44:31;15.10;99.90
56044;DHT22;41912;51.022;3.664;2023-05-10T06:46:57;15.10;99.90
56044;DHT22;41912;51.022;3.664;2023-05-10T06:49:22;15.10;99.90
56044;DHT22;41912;51.022;3.664;2023-05-10T06:51:48;15.10;99.90
56044;DHT22;41912;51.022;3.664;2023-05-10T06:54:14;15.10;99.90
56044;DHT22;41912;51.022;3.664;2023-05-10T06:56:39;15.20;99.90
56044;DHT22;41912;51.022;3.664;2023-05-10T06:59:05;15.20;99.90
56044;DHT22;41912;51.022;3.664;2023-05-10T07:01:31;15.20;99.90
56044;DHT22;41912;51.022;3.664;2023-05-10T07:03:57;15.20;99.90
56044;DHT22;41912;51.022;3.664;2023-05-10T07:06:23;15.30;99.90
56044;DHT22;41912;51.022;3.664;2023-05-10T07:08:48;15.30;99.90
56044;DHT22;41912;51.022;3.664;2023-05-10T07:11:14;15.30;99.90
56044;DHT22;41912;51.022;3.664;2023-05-10T07:13:39;15.30;99.90
56044;DHT22;41912;51.022;3.664;2023-05-10T07:16:09;15.20;99.90
56044;DHT22;41912;51.022;3.664;2023-05-10T07:18:35;15.20;99.90
56044;DHT22;41912;51.022;3.664;2023-05-10T07:21:00;15.20;99.90
56044;DHT22;41912;51.022;3.664;2023-05-10T07:23:27;15.30;99.90
56044;DHT22;41912;51.022;3.664;2023-05-10T07:25:53;15.30;99.90
56044;DHT22;41912;51.022;3.664;2023-05-10T07:28:19;15.30;99.90
56044;DHT22;41912;51.022;3.664;2023-05-10T07:30:45;15.30;99.90
56044;DHT22;41912;51.022;3.664;2023-05-10T07:33:13;15.40;99.90
56044;DHT22;41912;51.022;3.664;2023-05-10T07:35:39;15.40;99.90
56044;DHT22;41912;51.022;3.664;2023-05-10T07:38:05;15.40;99.90
56044;DHT22;41912;51.022;3.664;2023-05-10T07:40:31;15.40;99.90
56044;DHT22;41912;51.022;3.664;2023-05-10T07:42:56;15.40;99.90
56044;DHT22;41912;51.022;3.664;2023-05-10T07:45:22;15.40;99.90
56044;DHT22;41912;51.022;3.664;2023-05-10T07:47:49;15.50;99.90
56044;DHT22;41912;51.022;3.664;2023-05-10T07:50:14;15.50;99.90
56044;DHT22;41912;51.022;3.664;2023-05-10T07:52:41;15.40;99.90
56044;DHT22;41912;51.022;3.664;2023-05-10T07:55:07;15.40;99.90
56044;DHT22;41912;51.022;3.664;2023-05-10T07:57:36;15.40;99.90
56044;DHT22;41912;51.022;3.664;2023-05-10T08:00:02;15.50;99.90
56044;DHT22;41912;51.022;3.664;2023-05-10T08:02:28;15.50;99.90
56044;DHT22;41912;51.022;3.664;2023-05-10T08:04:53;15.50;99.90
56044;DHT22;41912;51.022;3.664;2023-05-10T08:07:19;15.60;99.90
56044;DHT22;41912;51.022;3.664;2023-05-10T08:09:45;15.60;99.90
56044;DHT22;41912;51.022;3.664;2023-05-10T08:12:11;15.60;99.90
56044;DHT22;41912;51.022;3.664;2023-05-10T08:14:37;15.60;99.90
56044;DHT22;41912;51.022;3.664;2023-05-10T08:17:03;15.60;99.90
56044;DHT22;41912;51.022;3.664;2023-05-10T08:19:29;15.60;99.90
56044;DHT22;41912;51.022;3.664;2023-05-10T08:21:54;15.60;99.90
56044;DHT22;41912;51.022;3.664;2023-05-10T08:24:21;15.50;99.90
56044;DHT22;41912;51.022;3.664;2023-05-10T08:26:47;15.50;99.90
56044;DHT22;41912;51.022;3.664;2023-05-10T08:29:13;15.50;99.90
56044;DHT22;41912;51.022;3.664;2023-05-10T08:31:39;15.60;99.90
56044;DHT22;41912;51.022;3.664;2023-05-10T08:34:05;15.60;99.90
56044;DHT22;41912;51.022;3.664;2023-05-10T08:36:30;15.60;99.90
56044;DHT22;41912;51.022;3.664;2023-05-10T08:38:57;15.70;99.90
56044;DHT22;41912;51.022;3.664;2023-05-10T08:41:24;15.60;99.90
56044;DHT22;41912;51.022;3.664;2023-05-10T08:43:52;15.70;99.90
56044;DHT22;41912;51.022;3.664;2023-05-10T08:46:20;15.70;99.90
56044;DHT22;41912;51.022;3.664;2023-05-10T08:48:46;15.70;99.90
56044;DHT22;41912;51.022;3.664;2023-05-10T08:51:24;15.70;99.90
56044;DHT22;41912;51.022;3.664;2023-05-10T08:53:52;15.70;99.90
56044;DHT22;41912;51.022;3.664;2023-05-10T08:56:18;15.80;99.90
56044;DHT22;41912;51.022;3.664;2023-05-10T08:58:44;15.80;99.90
56044;DHT22;41912;51.022;3.664;2023-05-10T09:01:09;15.70;99.90
56044;DHT22;41912;51.022;3.664;2023-05-10T09:03:38;15.70;99.90
56044;DHT22;41912;51.022;3.664;2023-05-10T09:06:04;15.70;99.90
56044;DHT22;41912;51.022;3.664;2023-05-10T09:08:30;15.70;99.90
56044;DHT22;41912;51.022;3.664;2023-05-10T09:10:56;15.70;99.90
56044;DHT22;41912;51.022;3.664;2023-05-10T09:13:23;15.70;99.90
56044;DHT22;41912;51.022;3.664;2023-05-10T09:15:50;15.70;99.90
56044;DHT22;41912;51.022;3.664;2023-05-10T09:18:16;15.80;99.90
56044;DHT22;41912;51.022;3.664;2023-05-10T09:20:41;15.80;99.90
56044;DHT22;41912;51.022;3.664;2023-05-10T09:23:08;15.80;99.90
56044;DHT22;41912;51.022;3.664;2023-05-10T09:25:34;15.80;99.90
56044;DHT22;41912;51.022;3.664;2023-05-10T09:28:00;15.80;99.90
56044;DHT22;41912;51.022;3.664;2023-05-10T09:30:28;15.90;99.90
56044;DHT22;41912;51.022;3.664;2023-05-10T09:32:54;15.90;99.90
56044;DHT22;41912;51.022;3.664;2023-05-10T09:35:25;16.00;99.90
56044;DHT22;41912;51.022;3.664;2023-05-10T09:37:52;16.00;99.90
56044;DHT22;41912;51.022;3.664;2023-05-10T09:40:24;16.00;99.90
56044;DHT22;41912;51.022;3.664;2023-05-10T09:45:26;16.10;99.90
56044;DHT22;41912;51.022;3.664;2023-05-10T09:47:52;16.10;99.90
56044;DHT22;41912;51.022;3.664;2023-05-10T09:50:19;16.20;99.90
56044;DHT22;41912;51.022;3.664;2023-05-10T09:52:50;16.20;99.90
56044;DHT22;41912;51.022;3.664;2023-05-10T09:55:18;16.20;99.90
56044;DHT22;41912;51.022;3.664;2023-05-10T09:57:44;16.30;99.90
56044;DHT22;41912;51.022;3.664;2023-05-10T10:00:09;16.30;99.90
56044;DHT22;41912;51.022;3.664;2023-05-10T10:02:35;16.40;99.90
56044;DHT22;41912;51.022;3.664;2023-05-10T10:05:02;16.40;99.90
56044;DHT22;41912;51.022;3.664;2023-05-10T10:07:31;16.50;99.90
56044;DHT22;41912;51.022;3.664;2023-05-10T10:09:57;16.50;99.90
56044;DHT22;41912;51.022;3.664;2023-05-10T10:12:23;16.60;99.90
56044;DHT22;41912;51.022;3.664;2023-05-10T10:14:49;16.60;99.90
56044;DHT22;41912;51.022;3.664;2023-05-10T10:17:16;16.70;99.90
56044;DHT22;41912;51.022;3.664;2023-05-10T10:19:42;16.70;99.90
56044;DHT22;41912;51.022;3.664;2023-05-10T10:22:09;16.70;99.90
56044;DHT22;41912;51.022;3.664;2023-05-10T10:24:38;16.80;99.90
56044;DHT22;41912;51.022;3.664;2023-05-10T10:27:31;16.70;99.90
56044;DHT22;41912;51.022;3.664;2023-05-10T10:35:55;16.90;99.90
56044;DHT22;41912;51.022;3.664;2023-05-10T10:38:23;16.80;99.90
56044;DHT22;41912;51.022;3.664;2023-05-10T10:41:02;16.90;99.90
56044;DHT22;41912;51.022;3.664;2023-05-10T10:43:28;16.90;99.90
56044;DHT22;41912;51.022;3.664;2023-05-10T10:48:37;16.90;99.90
56044;DHT22;41912;51.022;3.664;2023-05-10T10:51:02;16.80;99.90
56044;DHT22;41912;51.022;3.664;2023-05-10T10:53:28;16.80;99.90
56044;DHT22;41912;51.022;3.664;2023-05-10T10:56:08;16.80;99.90
56044;DHT22;41912;51.022;3.664;2023-05-10T10:58:35;16.80;99.90
56044;DHT22;41912;51.022;3.664;2023-05-10T11:01:12;16.80;99.90
56044;DHT22;41912;51.022;3.664;2023-05-10T11:03:38;16.80;99.90
56044;DHT22;41912;51.022;3.664;2023-05-10T11:06:03;16.80;99.90
56044;DHT22;41912;51.022;3.664;2023-05-10T11:08:33;16.70;99.90
56044;DHT22;41912;51.022;3.664;2023-05-10T11:13:38;16.60;99.90
56044;DHT22;41912;51.022;3.664;2023-05-10T11:18:38;16.50;99.90
56044;DHT22;41912;51.022;3.664;2023-05-10T11:21:04;16.50;99.90
56044;DHT22;41912;51.022;3.664;2023-05-10T11:23:54;16.60;99.90
56044;DHT22;41912;51.022;3.664;2023-05-10T11:26:31;16.60;99.90
56044;DHT22;41912;51.022;3.664;2023-05-10T11:28:57;16.60;99.90
56044;DHT22;41912;51.022;3.664;2023-05-10T11:31:24;16.70;99.90
56044;DHT22;41912;51.022;3.664;2023-05-10T11:33:56;16.70;99.90
56044;DHT22;41912;51.022;3.664;2023-05-10T11:36:31;16.70;99.90
56044;DHT22;41912;51.022;3.664;2023-05-10T11:38:58;16.70;99.90
56044;DHT22;41912;51.022;3.664;2023-05-10T11:41:24;16.80;99.90
56044;DHT22;41912;51.022;3.664;2023-05-10T11:43:51;16.70;99.90
56044;DHT22;41912;51.022;3.664;2023-05-10T11:46:19;16.70;99.90
56044;DHT22;41912;51.022;3.664;2023-05-10T11:48:50;16.70;99.90
56044;DHT22;41912;51.022;3.664;2023-05-10T11:51:23;16.70;99.90
56044;DHT22;41912;51.022;3.664;2023-05-10T11:53:51;16.80;99.90
56044;DHT22;41912;51.022;3.664;2023-05-10T11:56:17;16.80;99.90
56044;DHT22;41912;51.022;3.664;2023-05-10T11:58:43;16.90;99.90
56044;DHT22;41912;51.022;3.664;2023-05-10T12:01:09;16.90;99.90
56044;DHT22;41912;51.022;3.664;2023-05-10T12:03:36;16.90;99.90
56044;DHT22;41912;51.022;3.664;2023-05-10T12:06:03;16.90;99.90
56044;DHT22;41912;51.022;3.664;2023-05-10T12:08:29;16.80;99.90
56044;DHT22;41912;51.022;3.664;2023-05-10T12:11:07;17.00;99.90
56044;DHT22;41912;51.022;3.664;2023-05-10T12:13:41;17.00;99.90
56044;DHT22;41912;51.022;3.664;2023-05-10T12:18:40;17.00;99.90
56044;DHT22;41912;51.022;3.664;2023-05-10T12:21:07;17.10;99.90
56044;DHT22;41912;51.022;3.664;2023-05-10T12:23:32;17.10;99.90
56044;DHT22;41912;51.022;3.664;2023-05-10T12:26:04;17.10;99.90
56044;DHT22;41912;51.022;3.664;2023-05-10T12:28:31;17.10;99.90
56044;DHT22;41912;51.022;3.664;2023-05-10T12:30:58;17.10;99.90
56044;DHT22;41912;51.022;3.664;2023-05-10T12:33:25;17.10;99.90
56044;DHT22;41912;51.022;3.664;2023-05-10T12:35:52;17.10;99.90
56044;DHT22;41912;51.022;3.664;2023-05-10T12:38:38;17.10;99.90
56044;DHT22;41912;51.022;3.664;2023-05-10T12:41:06;17.00;99.90
56044;DHT22;41912;51.022;3.664;2023-05-10T12:43:33;17.00;99.90
56044;DHT22;41912;51.022;3.664;2023-05-10T12:46:13;17.00;99.90
56044;DHT22;41912;51.022;3.664;2023-05-10T12:48:40;16.90;99.90
56044;DHT22;41912;51.022;3.664;2023-05-10T12:51:07;16.90;99.90
56044;DHT22;41912;51.022;3.664;2023-05-10T12:53:38;16.90;99.90
56044;DHT22;41912;51.022;3.664;2023-05-10T12:56:05;16.80;99.90
56044;DHT22;41912;51.022;3.664;2023-05-10T12:58:30;16.80;99.90
56044;DHT22;41912;51.022;3.664;2023-05-10T13:00:57;16.80;99.90
56044;DHT22;41912;51.022;3.664;2023-05-10T13:03:23;16.80;99.90
56044;DHT22;41912;51.022;3.664;2023-05-10T13:05:48;16.80;99.90
56044;DHT22;41912;51.022;3.664;2023-05-10T13:08:14;16.80;99.90
56044;DHT22;41912;51.022;3.664;2023-05-10T13:10:40;16.80;99.90
56044;DHT22;41912;51.022;3.664;2023-05-10T13:13:06;16.80;99.90
56044;DHT22;41912;51.022;3.664;2023-05-10T13:15:33;16.80;99.90
56044;DHT22;41912;51.022;3.664;2023-05-10T13:17:58;16.70;99.90
56044;DHT22;41912;51.022;3.664;2023-05-10T13:20:24;16.70;99.90
56044;DHT22;41912;51.022;3.664;2023-05-10T13:22:50;16.70;99.90
56044;DHT22;41912;51.022;3.664;2023-05-10T13:25:16;16.70;99.90
56044;DHT22;41912;51.022;3.664;2023-05-10T13:27:42;16.80;99.90
56044;DHT22;41912;51.022;3.664;2023-05-10T13:30:08;16.80;99.90
56044;DHT22;41912;51.022;3.664;2023-05-10T13:32:35;16.90;99.90
56044;DHT22;41912;51.022;3.664;2023-05-10T13:35:02;16.90;99.90
56044;DHT22;41912;51.022;3.664;2023-05-10T13:37:30;16.90;99.90
56044;DHT22;41912;51.022;3.664;2023-05-10T13:39:55;16.90;99.90
56044;DHT22;41912;51.022;3.664;2023-05-10T13:42:22;17.00;99.90
56044;DHT22;41912;51.022;3.664;2023-05-10T13:44:48;17.00;99.90
56044;DHT22;41912;51.022;3.664;2023-05-10T13:47:14;17.00;99.90
56044;DHT22;41912;51.022;3.664;2023-05-10T13:49:40;17.00;99.90
56044;DHT22;41912;51.022;3.664;2023-05-10T13:52:05;17.10;99.90
56044;DHT22;41912;51.022;3.664;2023-05-10T13:54:38;17.10;99.90
56044;DHT22;41912;51.022;3.664;2023-05-10T13:57:03;17.10;99.90
56044;DHT22;41912;51.022;3.664;2023-05-10T13:59:30;17.10;99.90
56044;DHT22;41912;51.022;3.664;2023-05-10T14:01:57;17.10;99.90
56044;DHT22;41912;51.022;3.664;2023-05-10T14:04:23;17.00;99.90
56044;DHT22;41912;51.022;3.664;2023-05-10T14:06:49;17.00;99.90
56044;DHT22;41912;51.022;3.664;2023-05-10T14:09:15;16.90;99.90
56044;DHT22;41912;51.022;3.664;2023-05-10T14:11:41;16.90;99.90
56044;DHT22;41912;51.022;3.664;2023-05-10T14:14:09;16.80;99.90
56044;DHT22;41912;51.022;3.664;2023-05-10T14:16:35;16.80;99.90
56044;DHT22;41912;51.022;3.664;2023-05-10T14:19:00;16.80;99.90
56044;DHT22;41912;51.022;3.664;2023-05-10T14:21:27;16.70;99.90
56044;DHT22;41912;51.022;3.664;2023-05-10T14:23:54;16.80;99.90
56044;DHT22;41912;51.022;3.664;2023-05-10T14:26:20;16.70;99.90
56044;DHT22;41912;51.022;3.664;2023-05-10T14:28:47;16.80;99.90
56044;DHT22;41912;51.022;3.664;2023-05-10T14:31:12;16.80;99.90
56044;DHT22;41912;51.022;3.664;2023-05-10T14:33:38;16.80;99.90
56044;DHT22;41912;51.022;3.664;2023-05-10T14:36:03;16.80;99.90
56044;DHT22;41912;51.022;3.664;2023-05-10T14:38:29;16.80;99.90
56044;DHT22;41912;51.022;3.664;2023-05-10T14:40:55;16.80;99.90
56044;DHT22;41912;51.022;3.664;2023-05-10T14:43:20;16.90;99.90
56044;DHT22;41912;51.022;3.664;2023-05-10T14:45:46;16.90;99.90
56044;DHT22;41912;51.022;3.664;2023-05-10T14:48:12;16.90;99.90
56044;DHT22;41912;51.022;3.664;2023-05-10T14:50:41;16.90;99.90
56044;DHT22;41912;51.022;3.664;2023-05-10T14:53:06;16.90;99.90
56044;DHT22;41912;51.022;3.664;2023-05-10T14:55:32;16.90;99.90
56044;DHT22;41912;51.022;3.664;2023-05-10T14:57:58;16.90;99.90
56044;DHT22;41912;51.022;3.664;2023-05-10T15:00:24;17.00;99.90
56044;DHT22;41912;51.022;3.664;2023-05-10T15:02:49;17.00;99.90
56044;DHT22;41912;51.022;3.664;2023-05-10T15:05:15;17.00;99.90
56044;DHT22;41912;51.022;3.664;2023-05-10T15:07:41;17.00;99.90
56044;DHT22;41912;51.022;3.664;2023-05-10T15:10:09;17.00;99.90
56044;DHT22;41912;51.022;3.664;2023-05-10T15:12:34;17.00;99.90
56044;DHT22;41912;51.022;3.664;2023-05-10T15:15:00;17.00;99.90
56044;DHT22;41912;51.022;3.664;2023-05-10T15:17:26;17.00;99.90
56044;DHT22;41912;51.022;3.664;2023-05-10T15:19:52;17.00;99.90
56044;DHT22;41912;51.022;3.664;2023-05-10T15:22:17;17.10;99.90
56044;DHT22;41912;51.022;3.664;2023-05-10T15:24:43;17.10;99.90
56044;DHT22;41912;51.022;3.664;2023-05-10T15:27:09;17.20;99.90
56044;DHT22;41912;51.022;3.664;2023-05-10T15:29:34;17.20;99.90
56044;DHT22;41912;51.022;3.664;2023-05-10T15:32:01;17.20;99.90
56044;DHT22;41912;51.022;3.664;2023-05-10T15:34:28;17.30;99.90
56044;DHT22;41912;51.022;3.664;2023-05-10T15:36:53;17.30;99.90
56044;DHT22;41912;51.022;3.664;2023-05-10T15:39:19;17.30;99.90
56044;DHT22;41912;51.022;3.664;2023-05-10T15:41:45;17.30;99.90
56044;DHT22;41912;51.022;3.664;2023-05-10T15:44:11;17.30;99.90
56044;DHT22;41912;51.022;3.664;2023-05-10T15:46:36;17.40;99.90
56044;DHT22;41912;51.022;3.664;2023-05-10T15:49:03;17.40;99.90
56044;DHT22;41912;51.022;3.664;2023-05-10T15:51:29;17.40;99.90
56044;DHT22;41912;51.022;3.664;2023-05-10T15:53:54;17.40;99.90
56044;DHT22;41912;51.022;3.664;2023-05-10T15:56:21;17.50;99.90
56044;DHT22;41912;51.022;3.664;2023-05-10T15:58:47;17.50;99.90